sensor_id;sensor_type;location;lat;lon;timestamp;pressure;altitude;pressure_sealevel;temperature;humidity
64066;BME280;50318;54.760;9.408;2023-01-31T00:01:52;101070.22;;;6.25;64.84
64066;BME280;50318;54.760;9.408;2023-01-31T00:04:18;101072.25;;;6.21;65.03
64066;BME280;50318;54.760;9.408;2023-01-31T00:06:47;101072.66;;;6.19;64.94
64066;BME280;50318;54.760;9.408;2023-01-31T00:09:17;101073.31;;;6.27;65.15
64066;BME280;50318;54.760;9.408;2023-01-31T00:11:56;101062.47;;;6.23;65.08
64066;BME280;50318;54.760;9.408;2023-01-31T00:14:32;101041.34;;;6.04;65.03
64066;BME280;50318;54.760;9.408;2023-01-31T00:16:58;101061.41;;;6.13;65.09
64066;BME280;50318;54.760;9.408;2023-01-31T00:19:26;101069.88;;;6.23;64.97
64066;BME280;50318;54.760;9.408;2023-01-31T00:21:52;101061.22;;;6.28;64.77
64066;BME280;50318;54.760;9.408;2023-01-31T00:24:22;101063.59;;;6.26;64.79
64066;BME280;50318;54.760;9.408;2023-01-31T00:26:48;101074.50;;;6.26;64.54
64066;BME280;50318;54.760;9.408;2023-01-31T00:29:16;101085.59;;;6.38;64.56
64066;BME280;50318;54.760;9.408;2023-01-31T00:31:47;101081.53;;;6.50;63.97
64066;BME280;50318;54.760;9.408;2023-01-31T00:34:13;101078.03;;;6.50;63.86
64066;BME280;50318;54.760;9.408;2023-01-31T00:36:43;101083.78;;;6.55;64.00
64066;BME280;50318;54.760;9.408;2023-01-31T00:39:12;101099.94;;;6.69;64.16
64066;BME280;50318;54.760;9.408;2023-01-31T00:41:38;101109.50;;;6.54;65.57
64066;BME280;50318;54.760;9.408;2023-01-31T00:44:06;101109.75;;;6.36;66.75
64066;BME280;50318;54.760;9.408;2023-01-31T00:46:36;101120.63;;;6.40;66.47
64066;BME280;50318;54.760;9.408;2023-01-31T00:49:08;101108.56;;;6.37;66.67
64066;BME280;50318;54.760;9.408;2023-01-31T00:51:34;101097.38;;;6.32;67.23
64066;BME280;50318;54.760;9.408;2023-01-31T00:54:00;101092.06;;;6.21;67.58
64066;BME280;50318;54.760;9.408;2023-01-31T00:56:26;101080.22;;;6.04;67.89
64066;BME280;50318;54.760;9.408;2023-01-31T00:58:53;101097.59;;;6.14;67.80
64066;BME280;50318;54.760;9.408;2023-01-31T01:01:25;101111.97;;;6.18;67.50
64066;BME280;50318;54.760;9.408;2023-01-31T01:03:58;101105.38;;;6.15;67.23
64066;BME280;50318;54.760;9.408;2023-01-31T01:06:25;101104.31;;;6.06;66.98
64066;BME280;50318;54.760;9.408;2023-01-31T01:08:51;101119.06;;;6.08;67.23
64066;BME280;50318;54.760;9.408;2023-01-31T01:11:24;101106.28;;;6.05;67.48
64066;BME280;50318;54.760;9.408;2023-01-31T01:13:54;101105.81;;;6.10;67.10
64066;BME280;50318;54.760;9.408;2023-01-31T01:16:38;101103.19;;;6.03;66.97
64066;BME280;50318;54.760;9.408;2023-01-31T01:19:06;101103.97;;;6.04;66.54
64066;BME280;50318;54.760;9.408;2023-01-31T01:21:33;101105.75;;;6.18;66.60
64066;BME280;50318;54.760;9.408;2023-01-31T01:24:00;101106.88;;;6.20;67.42
64066;BME280;50318;54.760;9.408;2023-01-31T01:26:29;101105.22;;;6.26;66.83
64066;BME280;50318;54.760;9.408;2023-01-31T01:28:57;101110.22;;;6.31;66.81
64066;BME280;50318;54.760;9.408;2023-01-31T01:31:24;101110.53;;;6.37;66.46
64066;BME280;50318;54.760;9.408;2023-01-31T01:33:50;101106.59;;;6.41;66.22
64066;BME280;50318;54.760;9.408;2023-01-31T01:36:22;101109.22;;;6.49;65.86
64066;BME280;50318;54.760;9.408;2023-01-31T01:38:52;101102.97;;;6.48;65.61
64066;BME280;50318;54.760;9.408;2023-01-31T01:41:19;101102.28;;;6.44;65.77
64066;BME280;50318;54.760;9.408;2023-01-31T01:43:57;101089.59;;;6.57;65.48
64066;BME280;50318;54.760;9.408;2023-01-31T01:46:33;101073.59;;;6.59;65.28
64066;BME280;50318;54.760;9.408;2023-01-31T01:49:42;101069.09;;;6.49;65.06
64066;BME280;50318;54.760;9.408;2023-01-31T01:52:11;101064.34;;;6.53;65.64
64066;BME280;50318;54.760;9.408;2023-01-31T01:54:54;101057.38;;;6.52;65.19
64066;BME280;50318;54.760;9.408;2023-01-31T01:57:30;101057.88;;;6.70;65.32
64066;BME280;50318;54.760;9.408;2023-01-31T02:00:07;101075.50;;;6.86;65.13
64066;BME280;50318;54.760;9.408;2023-01-31T02:02:45;101086.81;;;6.88;65.69
64066;BME280;50318;54.760;9.408;2023-01-31T02:05:23;101075.28;;;7.00;65.24
64066;BME280;50318;54.760;9.408;2023-01-31T02:07:52;101076.41;;;7.02;64.62
64066;BME280;50318;54.760;9.408;2023-01-31T02:10:36;101078.25;;;7.09;64.27
64066;BME280;50318;54.760;9.408;2023-01-31T02:13:06;101088.44;;;7.05;64.48
64066;BME280;50318;54.760;9.408;2023-01-31T02:15:32;101074.94;;;6.98;65.06
64066;BME280;50318;54.760;9.408;2023-01-31T02:18:08;101082.22;;;7.04;64.94
64066;BME280;50318;54.760;9.408;2023-01-31T02:24:05;101096.75;;;7.21;63.95
64066;BME280;50318;54.760;9.408;2023-01-31T02:37:51;101096.97;;;7.30;64.13
64066;BME280;50318;54.760;9.408;2023-01-31T02:43:14;101097.63;;;7.38;64.18
64066;BME280;50318;54.760;9.408;2023-01-31T02:46:10;101097.19;;;7.39;64.12
64066;BME280;50318;54.760;9.408;2023-01-31T02:49:15;101099.66;;;7.34;63.73
64066;BME280;50318;54.760;9.408;2023-01-31T02:51:52;101099.00;;;7.26;63.67
64066;BME280;50318;54.760;9.408;2023-01-31T02:54:22;101103.44;;;7.40;63.93
64066;BME280;50318;54.760;9.408;2023-01-31T02:56:51;101105.38;;;7.39;64.49
64066;BME280;50318;54.760;9.408;2023-01-31T02:59:23;101120.66;;;7.37;64.05
64066;BME280;50318;54.760;9.408;2023-01-31T03:01:57;101092.25;;;7.34;64.43
64066;BME280;50318;54.760;9.408;2023-01-31T03:04:33;101104.75;;;7.52;64.28
64066;BME280;50318;54.760;9.408;2023-01-31T03:10:27;101100.63;;;7.44;64.38
64066;BME280;50318;54.760;9.408;2023-01-31T03:22:14;101084.41;;;7.76;64.21
64066;BME280;50318;54.760;9.408;2023-01-31T03:25:05;101092.59;;;7.76;64.67
64066;BME280;50318;54.760;9.408;2023-01-31T03:27:58;101082.44;;;7.77;64.29
64066;BME280;50318;54.760;9.408;2023-01-31T03:30:58;101078.47;;;7.81;64.08
64066;BME280;50318;54.760;9.408;2023-01-31T03:33:58;101077.75;;;7.77;64.38
64066;BME280;50318;54.760;9.408;2023-01-31T03:36:42;101070.19;;;7.85;63.86
64066;BME280;50318;54.760;9.408;2023-01-31T03:40:02;101057.94;;;7.73;64.16
64066;BME280;50318;54.760;9.408;2023-01-31T03:42:54;101052.47;;;7.73;64.36
64066;BME280;50318;54.760;9.408;2023-01-31T03:48:42;101049.41;;;7.71;64.32
64066;BME280;50318;54.760;9.408;2023-01-31T03:51:14;101035.81;;;7.67;64.44
64066;BME280;50318;54.760;9.408;2023-01-31T03:53:51;101034.72;;;7.65;64.27
64066;BME280;50318;54.760;9.408;2023-01-31T03:58:50;101020.22;;;7.68;64.29
64066;BME280;50318;54.760;9.408;2023-01-31T04:01:24;101014.25;;;7.53;64.57
64066;BME280;50318;54.760;9.408;2023-01-31T04:03:57;101015.75;;;7.58;64.28
64066;BME280;50318;54.760;9.408;2023-01-31T04:06:26;101014.25;;;7.53;64.39
64066;BME280;50318;54.760;9.408;2023-01-31T04:09:00;101008.38;;;7.55;64.89
64066;BME280;50318;54.760;9.408;2023-01-31T04:11:26;101005.81;;;7.48;65.09
64066;BME280;50318;54.760;9.408;2023-01-31T04:14:02;101026.19;;;7.43;65.25
64066;BME280;50318;54.760;9.408;2023-01-31T04:16:34;101014.22;;;7.37;65.05
64066;BME280;50318;54.760;9.408;2023-01-31T04:21:52;101024.91;;;7.48;65.52
64066;BME280;50318;54.760;9.408;2023-01-31T04:24:22;101036.94;;;7.50;65.92
64066;BME280;50318;54.760;9.408;2023-01-31T04:26:54;101028.75;;;7.50;65.84
64066;BME280;50318;54.760;9.408;2023-01-31T04:29:24;101031.91;;;7.49;66.15
64066;BME280;50318;54.760;9.408;2023-01-31T04:31:54;101003.00;;;7.31;66.08
64066;BME280;50318;54.760;9.408;2023-01-31T04:34:20;101037.94;;;7.60;66.24
64066;BME280;50318;54.760;9.408;2023-01-31T04:36:46;101031.97;;;7.65;66.60
64066;BME280;50318;54.760;9.408;2023-01-31T04:39:16;101026.88;;;7.67;66.55
64066;BME280;50318;54.760;9.408;2023-01-31T04:41:43;101016.63;;;7.71;66.13
64066;BME280;50318;54.760;9.408;2023-01-31T04:44:09;101013.81;;;7.75;66.28
64066;BME280;50318;54.760;9.408;2023-01-31T04:46:35;100996.84;;;7.67;66.13
64066;BME280;50318;54.760;9.408;2023-01-31T04:49:02;101007.16;;;7.76;66.38
64066;BME280;50318;54.760;9.408;2023-01-31T04:51:29;101004.78;;;7.78;66.80
64066;BME280;50318;54.760;9.408;2023-01-31T04:53:58;100996.53;;;7.81;66.83
64066;BME280;50318;54.760;9.408;2023-01-31T04:56:38;100991.41;;;7.83;66.44
64066;BME280;50318;54.760;9.408;2023-01-31T04:59:05;100987.06;;;7.86;66.40
64066;BME280;50318;54.760;9.408;2023-01-31T05:01:31;100983.22;;;7.83;66.57
64066;BME280;50318;54.760;9.408;2023-01-31T05:03:57;100980.06;;;7.85;66.31
64066;BME280;50318;54.760;9.408;2023-01-31T05:06:24;100984.34;;;7.86;65.97
64066;BME280;50318;54.760;9.408;2023-01-31T05:08:50;100969.28;;;7.78;66.61
64066;BME280;50318;54.760;9.408;2023-01-31T05:11:16;100970.59;;;7.89;66.82
64066;BME280;50318;54.760;9.408;2023-01-31T05:13:42;100954.72;;;7.84;66.51
64066;BME280;50318;54.760;9.408;2023-01-31T05:16:10;100963.78;;;7.97;66.18
64066;BME280;50318;54.760;9.408;2023-01-31T05:18:43;100963.25;;;8.02;66.24
64066;BME280;50318;54.760;9.408;2023-01-31T05:21:10;100955.91;;;7.99;66.83
64066;BME280;50318;54.760;9.408;2023-01-31T05:23:36;100954.91;;;8.10;65.92
64066;BME280;50318;54.760;9.408;2023-01-31T05:26:05;100947.41;;;8.14;66.04
64066;BME280;50318;54.760;9.408;2023-01-31T05:28:32;100956.63;;;8.20;65.60
64066;BME280;50318;54.760;9.408;2023-01-31T05:31:08;100941.25;;;8.10;66.05
64066;BME280;50318;54.760;9.408;2023-01-31T05:33:43;100948.34;;;8.07;66.86
64066;BME280;50318;54.760;9.408;2023-01-31T05:36:09;100932.28;;;8.09;66.37
64066;BME280;50318;54.760;9.408;2023-01-31T05:38:36;100929.72;;;8.18;66.59
64066;BME280;50318;54.760;9.408;2023-01-31T05:41:02;100918.13;;;8.14;66.70
64066;BME280;50318;54.760;9.408;2023-01-31T05:43:28;100916.81;;;8.19;66.66
64066;BME280;50318;54.760;9.408;2023-01-31T05:45:54;100916.31;;;8.24;67.44
64066;BME280;50318;54.760;9.408;2023-01-31T05:48:23;100897.69;;;8.19;67.11
64066;BME280;50318;54.760;9.408;2023-01-31T05:50:50;100913.84;;;8.29;66.86
64066;BME280;50318;54.760;9.408;2023-01-31T05:53:16;100900.59;;;8.28;66.59
64066;BME280;50318;54.760;9.408;2023-01-31T05:55:42;100909.91;;;8.30;66.83
64066;BME280;50318;54.760;9.408;2023-01-31T05:58:08;100900.34;;;8.22;66.83
64066;BME280;50318;54.760;9.408;2023-01-31T06:00:34;100901.88;;;8.23;67.18
64066;BME280;50318;54.760;9.408;2023-01-31T06:03:00;100901.72;;;8.30;66.58
64066;BME280;50318;54.760;9.408;2023-01-31T06:05:27;100897.78;;;8.31;66.83
64066;BME280;50318;54.760;9.408;2023-01-31T06:07:53;100886.25;;;8.24;67.11
64066;BME280;50318;54.760;9.408;2023-01-31T06:10:20;100878.31;;;8.13;67.82
64066;BME280;50318;54.760;9.408;2023-01-31T06:12:46;100885.81;;;8.25;67.47
64066;BME280;50318;54.760;9.408;2023-01-31T06:15:12;100892.31;;;8.31;67.46
64066;BME280;50318;54.760;9.408;2023-01-31T06:17:38;100893.78;;;8.36;67.58
64066;BME280;50318;54.760;9.408;2023-01-31T06:20:08;100873.03;;;8.39;67.56
64066;BME280;50318;54.760;9.408;2023-01-31T06:22:37;100877.88;;;8.47;67.79
64066;BME280;50318;54.760;9.408;2023-01-31T06:25:03;100879.34;;;8.52;68.01
64066;BME280;50318;54.760;9.408;2023-01-31T06:27:31;100877.50;;;8.61;67.55
64066;BME280;50318;54.760;9.408;2023-01-31T06:29:57;100869.63;;;8.64;67.46
64066;BME280;50318;54.760;9.408;2023-01-31T06:32:23;100866.38;;;8.69;67.19
64066;BME280;50318;54.760;9.408;2023-01-31T06:34:49;100861.09;;;8.61;67.48
64066;BME280;50318;54.760;9.408;2023-01-31T06:37:16;100859.03;;;8.66;67.45
64066;BME280;50318;54.760;9.408;2023-01-31T06:39:42;100855.31;;;8.72;67.43
64066;BME280;50318;54.760;9.408;2023-01-31T06:42:08;100853.59;;;8.78;67.20
64066;BME280;50318;54.760;9.408;2023-01-31T06:44:38;100846.50;;;8.81;66.99
64066;BME280;50318;54.760;9.408;2023-01-31T06:47:05;100846.50;;;8.81;66.66
64066;BME280;50318;54.760;9.408;2023-01-31T06:49:40;100820.19;;;8.71;66.93
64066;BME280;50318;54.760;9.408;2023-01-31T06:52:09;100827.78;;;8.79;66.64
64066;BME280;50318;54.760;9.408;2023-01-31T06:54:35;100818.50;;;8.77;67.26
64066;BME280;50318;54.760;9.408;2023-01-31T06:57:01;100818.28;;;8.84;67.11
64066;BME280;50318;54.760;9.408;2023-01-31T06:59:28;100813.69;;;8.81;67.00
64066;BME280;50318;54.760;9.408;2023-01-31T07:01:54;100802.75;;;8.81;66.54
64066;BME280;50318;54.760;9.408;2023-01-31T07:04:24;100790.69;;;8.78;67.35
64066;BME280;50318;54.760;9.408;2023-01-31T07:06:54;100789.19;;;8.90;67.05
64066;BME280;50318;54.760;9.408;2023-01-31T07:09:23;100785.25;;;8.91;67.23
64066;BME280;50318;54.760;9.408;2023-01-31T07:11:49;100783.59;;;8.93;67.08
64066;BME280;50318;54.760;9.408;2023-01-31T07:14:21;100777.94;;;9.01;67.18
64066;BME280;50318;54.760;9.408;2023-01-31T07:16:50;100776.47;;;8.96;67.63
64066;BME280;50318;54.760;9.408;2023-01-31T07:19:16;100754.06;;;8.88;67.43
64066;BME280;50318;54.760;9.408;2023-01-31T07:21:45;100747.38;;;8.89;67.68
64066;BME280;50318;54.760;9.408;2023-01-31T07:24:11;100753.75;;;8.99;67.76
64066;BME280;50318;54.760;9.408;2023-01-31T07:26:37;100749.25;;;8.92;67.93
64066;BME280;50318;54.760;9.408;2023-01-31T07:29:04;100736.56;;;8.86;69.11
64066;BME280;50318;54.760;9.408;2023-01-31T07:31:30;100740.91;;;8.96;68.61
64066;BME280;50318;54.760;9.408;2023-01-31T07:34:02;100746.94;;;8.91;69.48
64066;BME280;50318;54.760;9.408;2023-01-31T07:36:28;100736.22;;;8.84;70.12
64066;BME280;50318;54.760;9.408;2023-01-31T07:38:58;100729.88;;;8.87;70.25
64066;BME280;50318;54.760;9.408;2023-01-31T07:41:27;100734.34;;;8.81;70.60
64066;BME280;50318;54.760;9.408;2023-01-31T07:44:02;100728.00;;;8.84;71.15
64066;BME280;50318;54.760;9.408;2023-01-31T07:46:29;100712.34;;;8.72;70.83
64066;BME280;50318;54.760;9.408;2023-01-31T07:48:55;100699.22;;;8.67;70.86
64066;BME280;50318;54.760;9.408;2023-01-31T07:51:21;100698.03;;;8.68;71.97
64066;BME280;50318;54.760;9.408;2023-01-31T07:53:47;100713.34;;;8.78;72.34
64066;BME280;50318;54.760;9.408;2023-01-31T07:56:16;100703.81;;;8.70;71.35
64066;BME280;50318;54.760;9.408;2023-01-31T07:58:50;100687.72;;;8.72;71.86
64066;BME280;50318;54.760;9.408;2023-01-31T08:01:19;100685.88;;;8.69;72.38
64066;BME280;50318;54.760;9.408;2023-01-31T08:03:45;100681.94;;;8.70;72.63
64066;BME280;50318;54.760;9.408;2023-01-31T08:06:12;100693.53;;;8.74;72.51
64066;BME280;50318;54.760;9.408;2023-01-31T08:08:48;100684.38;;;8.80;72.42
64066;BME280;50318;54.760;9.408;2023-01-31T08:11:17;100677.03;;;8.65;72.54
64066;BME280;50318;54.760;9.408;2023-01-31T08:13:44;100671.44;;;8.68;73.21
64066;BME280;50318;54.760;9.408;2023-01-31T08:16:11;100653.72;;;8.73;72.43
64066;BME280;50318;54.760;9.408;2023-01-31T08:18:37;100661.28;;;8.81;72.23
64066;BME280;50318;54.760;9.408;2023-01-31T08:21:04;100639.19;;;8.76;73.11
64066;BME280;50318;54.760;9.408;2023-01-31T08:23:31;100649.78;;;8.86;72.23
64066;BME280;50318;54.760;9.408;2023-01-31T08:26:02;100649.03;;;8.86;72.77
64066;BME280;50318;54.760;9.408;2023-01-31T08:28:29;100622.56;;;8.83;72.73
64066;BME280;50318;54.760;9.408;2023-01-31T08:30:56;100634.69;;;8.82;72.85
64066;BME280;50318;54.760;9.408;2023-01-31T08:33:22;100638.06;;;8.86;72.92
64066;BME280;50318;54.760;9.408;2023-01-31T08:35:49;100627.25;;;8.82;72.85
64066;BME280;50318;54.760;9.408;2023-01-31T08:38:15;100611.50;;;8.74;72.99
64066;BME280;50318;54.760;9.408;2023-01-31T08:40:41;100613.38;;;8.77;73.80
64066;BME280;50318;54.760;9.408;2023-01-31T08:43:08;100614.34;;;8.83;73.08
64066;BME280;50318;54.760;9.408;2023-01-31T08:45:35;100599.59;;;8.80;73.96
64066;BME280;50318;54.760;9.408;2023-01-31T08:48:01;100585.66;;;8.75;73.83
64066;BME280;50318;54.760;9.408;2023-01-31T08:50:30;100595.00;;;8.77;74.30
64066;BME280;50318;54.760;9.408;2023-01-31T08:53:02;100589.06;;;8.79;73.96
64066;BME280;50318;54.760;9.408;2023-01-31T08:55:29;100585.78;;;8.84;74.04
64066;BME280;50318;54.760;9.408;2023-01-31T08:57:56;100579.09;;;8.85;73.87
64066;BME280;50318;54.760;9.408;2023-01-31T09:00:23;100565.22;;;8.79;73.90
64066;BME280;50318;54.760;9.408;2023-01-31T09:05:19;100542.66;;;8.88;74.02
64066;BME280;50318;54.760;9.408;2023-01-31T09:07:45;100552.84;;;8.87;74.49
64066;BME280;50318;54.760;9.408;2023-01-31T09:10:11;100545.00;;;8.77;74.37
64066;BME280;50318;54.760;9.408;2023-01-31T09:12:38;100538.97;;;8.82;74.14
64066;BME280;50318;54.760;9.408;2023-01-31T09:15:05;100543.22;;;8.83;74.79
64066;BME280;50318;54.760;9.408;2023-01-31T09:17:31;100547.94;;;8.82;75.14
64066;BME280;50318;54.760;9.408;2023-01-31T09:19:57;100534.91;;;8.86;74.90
64066;BME280;50318;54.760;9.408;2023-01-31T09:22:23;100526.25;;;8.88;75.41
64066;BME280;50318;54.760;9.408;2023-01-31T09:24:49;100522.19;;;8.92;75.01
64066;BME280;50318;54.760;9.408;2023-01-31T09:27:15;100513.75;;;9.00;75.30
64066;BME280;50318;54.760;9.408;2023-01-31T09:29:42;100515.94;;;9.05;75.68
64066;BME280;50318;54.760;9.408;2023-01-31T09:32:08;100526.50;;;9.15;75.23
64066;BME280;50318;54.760;9.408;2023-01-31T09:34:34;100513.13;;;9.17;75.14
64066;BME280;50318;54.760;9.408;2023-01-31T09:37:00;100519.34;;;9.18;75.21
64066;BME280;50318;54.760;9.408;2023-01-31T09:39:26;100507.97;;;9.19;75.09
64066;BME280;50318;54.760;9.408;2023-01-31T09:41:56;100507.00;;;9.13;74.88
64066;BME280;50318;54.760;9.408;2023-01-31T09:44:30;100500.91;;;9.09;75.34
64066;BME280;50318;54.760;9.408;2023-01-31T09:47:29;100485.88;;;9.14;75.23
64066;BME280;50318;54.760;9.408;2023-01-31T09:50:00;100489.13;;;9.21;75.53
64066;BME280;50318;54.760;9.408;2023-01-31T09:52:28;100483.34;;;9.19;75.50
64066;BME280;50318;54.760;9.408;2023-01-31T09:54:54;100474.91;;;9.27;75.81
64066;BME280;50318;54.760;9.408;2023-01-31T10:00:32;100484.72;;;9.46;75.60
64066;BME280;50318;54.760;9.408;2023-01-31T10:05:51;100448.13;;;9.52;75.31
64066;BME280;50318;54.760;9.408;2023-01-31T10:13:55;100442.78;;;9.49;74.95
64066;BME280;50318;54.760;9.408;2023-01-31T10:16:32;100438.53;;;9.48;75.24
64066;BME280;50318;54.760;9.408;2023-01-31T10:19:11;100415.50;;;9.36;75.64
64066;BME280;50318;54.760;9.408;2023-01-31T10:21:44;100429.78;;;9.40;75.88
64066;BME280;50318;54.760;9.408;2023-01-31T10:24:19;100445.78;;;9.42;75.90
64066;BME280;50318;54.760;9.408;2023-01-31T10:26:51;100446.53;;;9.42;75.68
64066;BME280;50318;54.760;9.408;2023-01-31T10:29:25;100427.25;;;9.46;75.89
64066;BME280;50318;54.760;9.408;2023-01-31T10:34:29;100440.06;;;9.49;76.01
64066;BME280;50318;54.760;9.408;2023-01-31T10:37:18;100431.69;;;9.52;75.78
64066;BME280;50318;54.760;9.408;2023-01-31T10:40:02;100428.72;;;9.38;76.26
64066;BME280;50318;54.760;9.408;2023-01-31T10:42:36;100429.22;;;9.45;76.40
64066;BME280;50318;54.760;9.408;2023-01-31T10:45:15;100428.41;;;9.36;76.36
64066;BME280;50318;54.760;9.408;2023-01-31T10:47:56;100433.00;;;9.39;76.45
64066;BME280;50318;54.760;9.408;2023-01-31T10:52:52;100421.72;;;9.37;76.57
64066;BME280;50318;54.760;9.408;2023-01-31T10:55:42;100431.53;;;9.47;76.91
64066;BME280;50318;54.760;9.408;2023-01-31T10:58:14;100425.91;;;9.50;76.96
64066;BME280;50318;54.760;9.408;2023-01-31T11:00:41;100424.50;;;9.46;76.77
64066;BME280;50318;54.760;9.408;2023-01-31T11:03:10;100408.88;;;9.46;77.24
64066;BME280;50318;54.760;9.408;2023-01-31T11:06:16;100416.19;;;9.49;77.22
64066;BME280;50318;54.760;9.408;2023-01-31T11:08:43;100401.94;;;9.33;77.73
64066;BME280;50318;54.760;9.408;2023-01-31T11:11:13;100402.13;;;9.38;77.83
64066;BME280;50318;54.760;9.408;2023-01-31T11:13:39;100404.72;;;9.42;78.07
64066;BME280;50318;54.760;9.408;2023-01-31T11:16:10;100406.44;;;9.48;77.79
64066;BME280;50318;54.760;9.408;2023-01-31T11:18:43;100389.59;;;9.59;77.81
64066;BME280;50318;54.760;9.408;2023-01-31T11:21:19;100401.44;;;9.56;77.79
64066;BME280;50318;54.760;9.408;2023-01-31T11:23:46;100400.91;;;9.70;78.18
64066;BME280;50318;54.760;9.408;2023-01-31T11:26:24;100396.06;;;9.74;77.75
64066;BME280;50318;54.760;9.408;2023-01-31T11:28:51;100397.59;;;9.84;77.55
64066;BME280;50318;54.760;9.408;2023-01-31T11:31:33;100400.03;;;9.92;77.40
64066;BME280;50318;54.760;9.408;2023-01-31T11:34:03;100393.03;;;9.91;77.37
64066;BME280;50318;54.760;9.408;2023-01-31T11:36:41;100382.28;;;9.96;77.12
64066;BME280;50318;54.760;9.408;2023-01-31T11:39:27;100376.56;;;9.72;77.48
64066;BME280;50318;54.760;9.408;2023-01-31T11:41:54;100350.56;;;9.77;77.47
64066;BME280;50318;54.760;9.408;2023-01-31T11:44:21;100358.19;;;9.91;76.85
64066;BME280;50318;54.760;9.408;2023-01-31T11:46:57;100350.72;;;9.92;77.34
64066;BME280;50318;54.760;9.408;2023-01-31T11:49:37;100354.88;;;9.96;77.50
64066;BME280;50318;54.760;9.408;2023-01-31T11:52:16;100333.09;;;10.02;76.88
64066;BME280;50318;54.760;9.408;2023-01-31T11:54:47;100337.53;;;9.99;76.89
64066;BME280;50318;54.760;9.408;2023-01-31T11:57:19;100338.91;;;10.04;77.27
64066;BME280;50318;54.760;9.408;2023-01-31T11:59:49;100317.13;;;10.09;76.74
64066;BME280;50318;54.760;9.408;2023-01-31T12:02:31;100319.72;;;10.13;76.99
64066;BME280;50318;54.760;9.408;2023-01-31T12:05:00;100326.63;;;10.27;76.40
64066;BME280;50318;54.760;9.408;2023-01-31T12:07:50;100320.66;;;10.37;76.31
64066;BME280;50318;54.760;9.408;2023-01-31T12:10:27;100321.59;;;10.34;75.67
64066;BME280;50318;54.760;9.408;2023-01-31T12:12:57;100314.13;;;10.35;75.73
64066;BME280;50318;54.760;9.408;2023-01-31T12:15:25;100326.16;;;10.37;76.06
64066;BME280;50318;54.760;9.408;2023-01-31T12:17:53;100330.13;;;10.45;75.78
64066;BME280;50318;54.760;9.408;2023-01-31T12:20:37;100325.22;;;10.40;75.57
64066;BME280;50318;54.760;9.408;2023-01-31T12:26:04;100317.78;;;10.41;75.56
64066;BME280;50318;54.760;9.408;2023-01-31T12:37:41;100287.47;;;10.26;74.75
64066;BME280;50318;54.760;9.408;2023-01-31T12:42:56;100285.91;;;10.16;75.32
64066;BME280;50318;54.760;9.408;2023-01-31T12:46:07;100267.38;;;10.29;75.08
64066;BME280;50318;54.760;9.408;2023-01-31T12:48:31;100263.09;;;10.47;75.38
64066;BME280;50318;54.760;9.408;2023-01-31T13:07:26;100232.97;;;10.89;73.50
64066;BME280;50318;54.760;9.408;2023-01-31T13:09:56;100243.22;;;10.79;73.64
64066;BME280;50318;54.760;9.408;2023-01-31T13:12:30;100234.50;;;10.90;72.64
64066;BME280;50318;54.760;9.408;2023-01-31T13:15:06;100237.38;;;10.95;72.68
64066;BME280;50318;54.760;9.408;2023-01-31T13:17:36;100220.03;;;10.80;72.83
64066;BME280;50318;54.760;9.408;2023-01-31T13:22:51;100216.19;;;10.96;72.87
64066;BME280;50318;54.760;9.408;2023-01-31T13:28:14;100221.03;;;11.01;72.37
64066;BME280;50318;54.760;9.408;2023-01-31T13:30:50;100212.03;;;11.00;72.32
64066;BME280;50318;54.760;9.408;2023-01-31T13:33:31;100208.41;;;10.94;71.88
64066;BME280;50318;54.760;9.408;2023-01-31T13:38:44;100195.84;;;10.69;71.24
64066;BME280;50318;54.760;9.408;2023-01-31T13:41:19;100217.97;;;10.57;71.73
64066;BME280;50318;54.760;9.408;2023-01-31T13:43:47;100231.84;;;10.53;71.64
64066;BME280;50318;54.760;9.408;2023-01-31T13:46:17;100210.41;;;10.33;72.69
64066;BME280;50318;54.760;9.408;2023-01-31T13:48:53;100228.84;;;10.24;73.90
64066;BME280;50318;54.760;9.408;2023-01-31T13:51:28;100219.41;;;10.25;73.77
64066;BME280;50318;54.760;9.408;2023-01-31T13:54:13;100224.25;;;10.39;73.83
64066;BME280;50318;54.760;9.408;2023-01-31T13:56:49;100218.19;;;10.26;73.46
64066;BME280;50318;54.760;9.408;2023-01-31T13:59:22;100236.47;;;10.29;73.72
64066;BME280;50318;54.760;9.408;2023-01-31T14:01:50;100212.25;;;10.00;74.24
64066;BME280;50318;54.760;9.408;2023-01-31T14:09:26;100207.97;;;10.35;73.33
64066;BME280;50318;54.760;9.408;2023-01-31T14:12:00;100206.59;;;10.12;73.33
64066;BME280;50318;54.760;9.408;2023-01-31T14:14:36;100210.69;;;10.35;72.91
64066;BME280;50318;54.760;9.408;2023-01-31T14:17:04;100203.53;;;10.38;72.59
64066;BME280;50318;54.760;9.408;2023-01-31T14:22:19;100188.63;;;10.30;72.67
64066;BME280;50318;54.760;9.408;2023-01-31T14:32:43;100211.47;;;10.18;71.73
64066;BME280;50318;54.760;9.408;2023-01-31T14:38:04;100197.28;;;10.37;71.67
64066;BME280;50318;54.760;9.408;2023-01-31T14:43:19;100189.38;;;10.49;70.36
64066;BME280;50318;54.760;9.408;2023-01-31T14:57:14;100204.03;;;10.00;70.45
64066;BME280;50318;54.760;9.408;2023-01-31T15:05:07;100203.09;;;10.03;70.55
64066;BME280;50318;54.760;9.408;2023-01-31T15:07:34;100207.22;;;10.07;70.03
64066;BME280;50318;54.760;9.408;2023-01-31T15:10:00;100194.59;;;10.01;69.20
64066;BME280;50318;54.760;9.408;2023-01-31T15:15:41;100204.03;;;10.00;68.34
64066;BME280;50318;54.760;9.408;2023-01-31T15:18:18;100280.25;;;9.83;68.54
64066;BME280;50318;54.760;9.408;2023-01-31T15:20:50;100305.78;;;9.62;64.86
64066;BME280;50318;54.760;9.408;2023-01-31T15:23:23;100316.72;;;9.21;63.81
64066;BME280;50318;54.760;9.408;2023-01-31T15:25:51;100310.19;;;8.44;65.64
64066;BME280;50318;54.760;9.408;2023-01-31T15:28:20;100293.13;;;7.71;68.05
64066;BME280;50318;54.760;9.408;2023-01-31T15:30:47;100299.69;;;7.48;68.81
64066;BME280;50318;54.760;9.408;2023-01-31T15:36:01;100283.56;;;6.61;71.50
64066;BME280;50318;54.760;9.408;2023-01-31T15:43:50;100288.81;;;6.27;74.25
64066;BME280;50318;54.760;9.408;2023-01-31T15:46:21;100303.81;;;6.19;74.61